Saturday, July 02, 2016
07:27 UTC
  |  Log In   |  Register Free
Airport Search:

Independence Municipal Airport
(KIDP)

FAA data valid effective May 26 2016 - Jul 21 2016 (unless otherwise noted).

 
 
 
 
 
 
 
 
 
 
 
 
 
 
Current Aviation Weather for KIDP

Weather Summary


The most recent METAR observation for IDP was updated at: 12:55 UTC
METAR for KIDP is not available. Closest METAR is for KCFV
KIDP  (most recent observation was updatred at 20:71 UTC)
020715Z AUTO 14004KT 10SM SCT060 SCT070 SCT080 22/20 A2999 RMK AO2

KCFV  (10.6 nm NW)   (most recent observation was updated at 20:65 UTC)
020652Z AUTO 19004KT 10SM -RA FEW055 SCT070 OVC100 23/21 A3001 RMK AO2 RAB52 SLP155 P0000 T02280211

KPPF  (16.6 nm SW)   (most recent observation was updated at 20:65 UTC)
020652Z AUTO 00000KT 10SM OVC065 23/20 A3003 RMK AO2 SLP158 T02330200

TAF for KIDP is not available.
KBVO  (26.2 nm NE)   (most recent observation was updatred at 20:52 UTC)
020520Z 0206/0306 00000KT P6SM VCSH BKN100 FM021200 VRB05KT P6SM SCT100 SCT250 FM021800 18011KT P6SM SCT060 SCT250 FM030100 17005KT P6SM SCT250


KCNU  (33.7 nm SW)   (most recent observation was updatred at 20:52 UTC)
020520Z 0206/0306 10007KT P6SM BKN100 FM021300 14010KT P6SM SCT100 FM021600 19014KT P6SM SCT250 FM030000 17010KT P6SM BKN250


GlobalAir.com is loading additional information.
 Current Weather at IDP
72.0 F° (22.0 C°)

Southwest winds at 3.5 mph
Pressure:
30.03 in
Humidity:
83%
Wind:
Southwest at 3.5 mph
Dew Point:
66.2 F° (19.0 C°)
Visibility:
10.00 mi
IDP NOAA Radar




Find All Airport Services Find A Hotel Find A Rental Car Find A Golf Course Find A Restaurant $100 Hamburger



Airport Weather Forecast for KIDP

Translated METAR for KIDP (0715 UTC)
METAR:
KIDP 020715Z AUTO 14004KT 10SM SCT060 SCT070 SCT080 22/20 A2999 RMK AO2
Conditions at:
KIDP (Independence Muni, KS) observed 0715 UTC 02 July 2016
Temperature:
22°C (71.6°F)
Dewpoint:
20°C (68°F) [RH = 88.4]
Pressure:
29.99 inches Hg (1015.6 mb)
Winds:
from the SE (140 degrees) at 4.6 mph (4 knots: 2.1 m/s)
Visibility:
10 mile(s)
Ceiling:
at least 12,000 feet AGL
Clouds:
Scattered Clouds at 6,000 feet AGL
Scattered Clouds at 7,000 feet AGL
Scattered Clouds at 8,000 feet AGL
Remarks:
site is un-manned
site is automated and HAS a precipitation sensor

Translated TAF for KBVO (Bartlesville Muni, OK) (0520 UTC)
TAF text:
KBVO 020520Z 0206/0306 00000KT P6SM VCSH BKN100
Forecast period:
Saturday Jul 02 2016 06:00 UTC - Sunday Jul 03 2016 06:00 UTC
Forecast type:
FROM: standard forecast or significant change
Winds:
from the N (000 degrees) at 0 mph (0 knots: 0 m/s)
Visibility:
6 or more mile(s) (9.7+ km)
Ceiling:
10,000 feet AGL
Clouds:
Broken Cloud Cover at 10,000 feet AGL
Weather:
Moderate In Vicinity Shower(s)
TAF text:
FM021200 VRB05KT P6SM SCT100 SCT250
Forecast period:
Saturday Jul 02 2016 12:00 UTC - Saturday Jul 02 2016 18:00 UTC
Forecast type:
FROM: standard forecast or significant change
Winds:
variable wind direction at 5.8 mph (5 knots: 2.6 m/s)
Visibility:
6 or more mile(s) (9.7+ km)
Ceiling:
at least 12,000 feet AGL
Clouds:
Scattered Clouds at 10,000 feet AGL
Scattered Clouds at 25,000 feet AGL
Weather:
no significant weather observed at this time
TAF text:
FM021800 18011KT P6SM SCT060 SCT250
Forecast period:
Saturday Jul 02 2016 18:00 UTC - Sunday Jul 03 2016 01:00 UTC
Forecast type:
FROM: standard forecast or significant change
Winds:
from the S (180 degrees) at 12.7 mph (11 knots: 5.7 m/s)
Visibility:
6 or more mile(s) (9.7+ km)
Ceiling:
at least 12,000 feet AGL
Clouds:
Scattered Clouds at 6,000 feet AGL
Scattered Clouds at 25,000 feet AGL
Weather:
no significant weather observed at this time
TAF text:
FM030100 17005KT P6SM SCT250
Forecast period:
Sunday Jul 03 2016 01:00 UTC - Sunday Jul 03 2016 06:00 UTC
Forecast type:
FROM: standard forecast or significant change
Winds:
from the S (170 degrees) at 5.8 mph (5 knots: 2.6 m/s)
Visibility:
6 or more mile(s) (9.7+ km)
Ceiling:
at least 12,000 feet AGL
Clouds:
Scattered Clouds at 25,000 feet AGL
Weather:
no significant weather observed at this time
FBO's on the Field
FBO Company Facility Photos Services Transportation Aviation Fuel Prices: Prices include tax
Catering Weather Repair Courtesy Rental Type 100LL JetA JetA+ MOGAS 8087
 
City of Independence

This FBO has not yet been rated
FS:Phillips 66
Last Updated: Jun-10
Login to update fuel prices
SS:
Contact City of IndependenceMore FBO Information
 
Add another FBO Facility Photos Catering Weather Repair Courtesy Rental Type 100LL JetA JetA+ MOGAS 8087
Services Transportation Aviation Fuel Prices: Prices include tax


model-print
model-print
model-print
model-print